Time;durP1;ratioP1;P1;durP2;ratioP2;P2;SDS_P1;SDS_P2;PMS_P1;PMS_P2;Temp;Humidity;BMP_temperature;BMP_pressure;BME280_temperature;BME280_humidity;BME280_pressure;Samples;Min_cycle;Max_cycle;Signal;HPM_P1;HPM_P2
2023/11/04 00:00:57;;;;;;;2.53;0.90;;;;;;;3.39;81.62;90884.47;2057276;69;20165;-75
2023/11/04 00:03:24;;;;;;;3.42;1.00;;;;;;;3.38;80.71;90877.44;2056246;69;20192;-79
2023/11/04 00:05:52;;;;;;;1.58;0.80;;;;;;;3.32;80.78;90888.97;2056671;69;20168;-78
2023/11/04 00:08:18;;;;;;;3.80;0.70;;;;;;;3.40;80.58;90886.66;2057971;69;20153;-76
2023/11/04 00:10:45;;;;;;;0.60;0.60;;;;;;;3.35;81.03;90884.25;2059947;69;20158;-75
2023/11/04 00:13:10;;;;;;;1.95;0.80;;;;;;;3.33;80.58;90895.97;2058451;69;20141;-79
2023/11/04 00:15:37;;;;;;;0.93;0.70;;;;;;;3.34;80.54;90894.63;2053485;69;123606;-75
2023/11/04 00:18:03;;;;;;;1.33;0.60;;;;;;;3.26;81.15;90897.69;2044926;69;20150;-75
2023/11/04 00:20:30;;;;;;;2.28;0.60;;;;;;;3.26;80.92;90894.19;2051175;70;20212;-76
2023/11/04 00:22:56;;;;;;;1.05;0.68;;;;;;;3.26;81.12;90897.69;2051177;69;20142;-76
2023/11/04 00:25:21;;;;;;;1.20;0.50;;;;;;;3.18;80.59;90904.81;2050633;70;20150;-75
2023/11/04 00:27:49;;;;;;;0.60;0.60;;;;;;;3.23;80.61;90898.16;2050736;70;20598;-77
2023/11/04 00:30:16;;;;;;;1.73;0.70;;;;;;;3.14;80.62;90905.31;2051345;69;20174;-80
2023/11/04 00:32:43;;;;;;;1.17;0.88;;;;;;;3.15;80.53;90903.97;2051809;69;20173;-78
2023/11/04 00:35:09;;;;;;;2.67;0.70;;;;;;;3.05;80.68;90906.16;2051133;70;20154;-77
2023/11/04 00:37:35;;;;;;;1.42;1.00;;;;;;;3.00;81.29;90910.03;2051132;70;20206;-79
2023/11/04 00:40:03;;;;;;;1.27;0.80;;;;;;;3.02;80.78;90904.59;2051570;69;20185;-75
2023/11/04 00:42:29;;;;;;;1.05;0.70;;;;;;;3.00;80.76;90910.03;2051004;70;20185;-74
2023/11/04 00:45:01;;;;;;;1.13;0.77;;;;;;;2.91;80.68;90919.94;2052157;69;20586;-77
2023/11/04 00:47:48;;;;;;;1.40;0.70;;;;;;;2.91;81.13;90916.44;2052566;69;20267;-77
2023/11/04 00:50:20;;;;;;;1.08;0.70;;;;;;;2.90;81.16;90915.72;2054051;70;20146;-77
2023/11/04 00:52:47;;;;;;;0.70;0.60;;;;;;;2.90;81.64;90924.06;2054528;69;20138;-79
2023/11/04 00:55:17;;;;;;;0.60;0.60;;;;;;;2.76;81.52;90928.78;2053716;69;20606;-78
2023/11/04 00:57:44;;;;;;;1.00;0.60;;;;;;;2.79;80.75;90922.00;2052887;69;20149;-77
2023/11/04 01:00:11;;;;;;;1.95;0.55;;;;;;;2.76;81.37;90920.44;2052268;70;20567;-79
2023/11/04 01:02:37;;;;;;;1.05;0.95;;;;;;;2.76;81.75;90920.44;2051508;70;20499;-78
2023/11/04 01:05:03;;;;;;;1.35;0.65;;;;;;;2.80;81.17;90926.97;2051922;70;20141;-78
2023/11/04 01:07:28;;;;;;;0.80;0.80;;;;;;;2.77;80.94;90928.16;2051270;70;20602;-77
2023/11/04 01:09:55;;;;;;;0.75;0.55;;;;;;;2.72;81.70;90925.75;2051865;69;20173;-76
2023/11/04 01:12:21;;;;;;;1.67;0.47;;;;;;;2.74;81.43;90923.09;2052404;70;20704;-77
2023/11/04 01:14:46;;;;;;;0.80;0.57;;;;;;;2.66;81.89;90936.50;2054225;69;20160;-76
2023/11/04 01:17:12;;;;;;;0.90;0.60;;;;;;;2.78;81.99;90935.16;2055024;69;20209;-75
2023/11/04 01:19:38;;;;;;;0.60;0.60;;;;;;;2.71;81.29;90921.53;2054508;70;20144;-75
2023/11/04 01:22:04;;;;;;;2.78;1.10;;;;;;;2.48;81.47;90931.28;2054900;69;20157;-77
2023/11/04 01:24:30;;;;;;;2.70;0.95;;;;;;;2.49;81.86;90938.28;2054400;69;20605;-79
2023/11/04 01:26:56;;;;;;;1.65;0.90;;;;;;;2.59;81.51;90935.41;2055034;69;20193;-78
2023/11/04 01:29:22;;;;;;;2.25;0.60;;;;;;;2.55;82.29;90932.38;2054063;70;20220;-78
2023/11/04 01:31:48;;;;;;;0.82;0.50;;;;;;;2.64;82.20;90939.88;2054751;69;20197;-79
2023/11/04 01:34:14;;;;;;;0.90;0.60;;;;;;;2.68;81.90;90936.63;2054508;69;20150;-80
2023/11/04 01:36:40;;;;;;;0.70;0.55;;;;;;;2.66;82.06;90930.94;2053789;69;20170;-79
2023/11/04 01:39:12;;;;;;;0.40;0.40;;;;;;;2.63;82.28;90923.81;2050666;70;20154;-76
2023/11/04 01:41:44;;;;;;;0.75;0.43;;;;;;;2.69;82.27;90927.66;2051379;69;20889;-79
2023/11/04 01:44:10;;;;;;;0.63;0.40;;;;;;;2.73;80.12;90907.75;2050351;70;20170;-80
2023/11/04 01:46:36;;;;;;;0.40;0.40;;;;;;;2.54;79.73;90919.81;2051481;69;20157;-77
2023/11/04 01:49:02;;;;;;;1.05;0.60;;;;;;;2.77;79.46;90919.81;2051061;69;20146;-76
2023/11/04 01:51:29;;;;;;;0.55;0.30;;;;;;;2.77;78.32;90913.53;2050709;70;20178;-78
2023/11/04 01:53:55;;;;;;;0.60;0.50;;;;;;;2.90;78.82;90924.06;2051454;70;20265;-77
2023/11/04 01:56:30;;;;;;;0.85;0.45;;;;;;;2.72;80.96;90923.69;2051398;70;20525;-79
2023/11/04 01:58:59;;;;;;;1.17;0.60;;;;;;;2.73;78.74;90927.19;2051189;70;20694;-77
2023/11/04 02:01:26;;;;;;;0.30;0.30;;;;;;;2.67;77.06;90933.13;2050605;70;20176;-77
2023/11/04 02:03:58;;;;;;;0.60;0.50;;;;;;;2.80;77.57;90931.81;2051391;69;20244;-79
2023/11/04 02:06:26;;;;;;;0.32;0.30;;;;;;;2.91;77.96;90927.56;2051534;70;20699;-78
2023/11/04 02:08:57;;;;;;;1.95;0.40;;;;;;;2.85;78.21;90924.44;2050969;70;20154;-80
2023/11/04 02:11:25;;;;;;;2.85;0.50;;;;;;;2.84;78.11;90932.03;2051504;70;20153;-78
2023/11/04 02:13:51;;;;;;;0.77;0.32;;;;;;;2.95;77.41;90930.59;2050809;70;20134;-78
2023/11/04 02:16:17;;;;;;;0.73;0.50;;;;;;;2.95;78.46;90919.47;2050334;70;20150;-76
2023/11/04 02:18:43;;;;;;;0.55;0.40;;;;;;;2.94;78.18;90927.09;2053495;69;20236;-79
2023/11/04 02:21:12;;;;;;;0.75;0.40;;;;;;;2.78;78.63;90937.94;2051387;69;20242;-79
2023/11/04 02:23:39;;;;;;;0.75;0.40;;;;;;;2.98;76.68;90929.38;2051457;69;20624;-79
2023/11/04 02:26:07;;;;;;;2.22;0.68;;;;;;;3.01;75.86;90925.38;2051315;69;20151;-80
2023/11/04 02:28:38;;;;;;;0.55;0.50;;;;;;;2.87;77.65;90930.81;2051352;70;20146;-78
2023/11/04 02:31:04;;;;;;;0.68;0.40;;;;;;;2.90;76.94;90924.06;2051316;70;20142;-79
2023/11/04 02:33:35;;;;;;;2.30;0.38;;;;;;;2.84;73.95;90922.97;2050686;70;20255;-78
2023/11/04 02:36:05;;;;;;;1.40;0.40;;;;;;;3.19;74.94;90934.06;2051008;70;20142;-79
2023/11/04 02:38:32;;;;;;;1.20;0.50;;;;;;;3.08;75.59;90935.53;2050984;69;20165;-76
2023/11/04 02:40:59;;;;;;;3.15;0.40;;;;;;;3.19;76.24;90923.66;2051411;69;20253;-79
2023/11/04 02:43:26;;;;;;;0.70;0.50;;;;;;;3.07;76.67;90928.53;2048005;70;20193;-79
2023/11/04 02:45:51;;;;;;;1.30;0.40;;;;;;;3.08;76.90;90913.31;2050847;70;20146;-74
2023/11/04 02:48:18;;;;;;;0.55;0.40;;;;;;;3.08;76.55;90920.91;2051462;69;20177;-78
2023/11/04 02:50:47;;;;;;;0.70;0.20;;;;;;;3.06;76.46;90913.16;2051710;69;20162;-78
2023/11/04 02:53:19;;;;;;;;;;;;;;;2.96;73.70;90920.91;2053931;70;20229;-79
2023/11/04 02:55:45;;;;;;;1.40;0.40;;;;;;;2.94;72.23;90912.47;2051540;70;20077;-78
2023/11/04 02:58:12;;;;;;;0.90;0.50;;;;;;;3.24;73.47;90905.88;2051455;70;20591;-79
2023/11/04 03:00:42;;;;;;;1.75;0.45;;;;;;;3.19;74.71;90895.88;2050537;70;20170;-79
2023/11/04 03:03:09;;;;;;;0.30;0.30;;;;;;;2.98;76.02;90907.16;2050684;70;20147;-78
2023/11/04 03:05:35;;;;;;;3.80;0.40;;;;;;;3.23;75.78;90912.06;2050407;70;20242;-78
2023/11/04 03:08:02;;;;;;;0.50;0.30;;;;;;;3.31;75.89;90912.53;2050974;69;20142;-75
2023/11/04 03:10:27;;;;;;;0.30;0.25;;;;;;;3.36;75.84;90913.50;2050337;70;20165;-78
2023/11/04 03:12:53;;;;;;;2.05;0.40;;;;;;;3.36;76.56;90911.44;2050924;69;20185;-78
2023/11/04 03:15:20;;;;;;;1.52;0.40;;;;;;;3.40;76.10;90914.47;2050847;70;20207;-74
2023/11/04 03:17:47;;;;;;;0.90;0.40;;;;;;;3.25;75.93;90920.50;2051051;69;20237;-75
2023/11/04 03:20:12;;;;;;;0.57;0.38;;;;;;;3.24;74.84;90925.34;2051041;69;20606;-75
2023/11/04 03:22:38;;;;;;;0.65;0.50;;;;;;;3.22;75.42;90905.78;2050927;70;20229;-76
2023/11/04 03:25:05;;;;;;;1.55;0.80;;;;;;;3.30;76.13;90913.88;2050705;69;20165;-75
2023/11/04 03:27:30;;;;;;;0.80;0.55;;;;;;;3.34;75.94;90921.72;2050763;70;20170;-75
2023/11/04 03:29:56;;;;;;;0.52;0.35;;;;;;;3.39;75.77;90921.38;2050585;70;20213;-78
2023/11/04 03:32:22;;;;;;;0.52;0.45;;;;;;;3.42;75.68;90927.75;2051188;70;20174;-79
2023/11/04 03:34:48;;;;;;;0.70;0.40;;;;;;;3.31;75.76;90929.22;2051082;70;20190;-79
2023/11/04 03:37:14;;;;;;;0.80;0.50;;;;;;;3.43;75.90;90927.13;2050969;69;20194;-77
2023/11/04 03:39:40;;;;;;;0.95;0.50;;;;;;;3.39;75.97;90932.50;2050278;70;20242;-77
2023/11/04 03:42:05;;;;;;;0.75;0.50;;;;;;;3.41;76.21;90927.03;2047537;70;20649;-76
2023/11/04 03:44:31;;;;;;;0.73;0.50;;;;;;;3.49;76.48;90929.56;2050910;69;20165;-78
2023/11/04 03:46:57;;;;;;;1.92;0.50;;;;;;;3.48;76.31;90926.06;2050999;70;20154;-77
2023/11/04 03:49:25;;;;;;;0.77;0.60;;;;;;;3.50;76.51;90917.81;2051074;70;20261;-78
2023/11/04 03:51:55;;;;;;;0.47;0.40;;;;;;;3.45;76.42;90921.72;2051070;70;20154;-79
2023/11/04 03:54:21;;;;;;;0.47;0.43;;;;;;;3.27;76.29;90912.31;2050941;69;20177;-77
2023/11/04 03:56:47;;;;;;;2.25;0.40;;;;;;;3.36;76.66;90930.91;2051056;70;20644;-76
2023/11/04 03:59:13;;;;;;;3.80;0.40;;;;;;;3.39;76.81;90940.09;2051005;70;20184;-73
2023/11/04 04:01:41;;;;;;;0.70;0.50;;;;;;;3.42;76.91;90945.16;2050517;70;20181;-76
2023/11/04 04:04:07;;;;;;;1.02;0.40;;;;;;;3.30;77.47;90947.25;2051511;70;20146;-74
2023/11/04 04:06:34;;;;;;;0.85;0.50;;;;;;;3.38;77.50;90933.06;2051028;69;20154;-75
2023/11/04 04:08:59;;;;;;;2.03;1.75;;;;;;;3.41;77.16;90931.88;2050882;70;20161;-74
2023/11/04 04:11:25;;;;;;;1.73;0.95;;;;;;;3.40;77.53;90916.53;2050640;70;20221;-75
2023/11/04 04:13:50;;;;;;;3.42;0.80;;;;;;;3.49;77.39;90929.56;2050400;70;20151;-75
2023/11/04 04:16:16;;;;;;;0.55;0.55;;;;;;;3.39;77.40;90915.06;2051298;70;20158;-74
2023/11/04 04:18:42;;;;;;;1.73;0.50;;;;;;;3.42;77.79;90911.78;2050161;70;20145;-75
2023/11/04 04:21:07;;;;;;;0.90;0.40;;;;;;;3.46;77.71;90922.44;2051034;70;20624;-79
2023/11/04 04:23:33;;;;;;;1.33;0.50;;;;;;;3.47;77.58;90907.19;2051168;70;20278;-76
2023/11/04 04:25:59;;;;;;;0.55;0.40;;;;;;;3.46;77.76;90916.88;2050286;70;20153;-76
2023/11/04 04:28:25;;;;;;;1.13;0.40;;;;;;;3.42;78.18;90917.34;2051077;69;20154;-74
2023/11/04 04:30:50;;;;;;;1.10;0.60;;;;;;;3.37;78.10;90903.81;2051003;70;20161;-75
2023/11/04 04:33:16;;;;;;;1.98;1.05;;;;;;;3.33;78.03;90898.03;2050863;70;20201;-74
2023/11/04 04:35:43;;;;;;;1.65;0.98;;;;;;;3.25;78.20;90896.25;2051712;69;20139;-75
2023/11/04 04:38:09;;;;;;;1.02;0.60;;;;;;;3.18;77.91;90899.97;2051637;69;20166;-75
2023/11/04 04:40:36;;;;;;;1.95;0.70;;;;;;;3.11;77.95;90895.38;2051055;70;20170;-74
2023/11/04 04:43:01;;;;;;;0.68;0.60;;;;;;;2.79;78.71;90897.72;2051605;69;20171;-75
2023/11/04 04:45:27;;;;;;;2.00;1.00;;;;;;;2.93;78.84;90900.63;2051676;69;20154;-77
2023/11/04 04:47:52;;;;;;;2.35;1.00;;;;;;;2.84;78.74;90895.91;2052131;69;20154;-76
2023/11/04 04:50:18;;;;;;;1.65;0.90;;;;;;;2.82;79.12;90893.00;2052109;69;20609;-75
2023/11/04 04:52:44;;;;;;;2.20;0.90;;;;;;;2.76;78.67;90896.16;2052144;69;20229;-77
2023/11/04 04:55:09;;;;;;;2.67;0.70;;;;;;;2.77;79.10;90897.59;2052000;70;20154;-76
2023/11/04 04:57:35;;;;;;;1.65;1.02;;;;;;;2.72;79.49;90898.69;2052480;69;20170;-74
2023/11/04 05:00:04;;;;;;;3.88;1.00;;;;;;;2.77;78.97;90896.88;2052625;69;20174;-76
2023/11/04 05:02:30;;;;;;;2.33;1.38;;;;;;;2.30;80.58;90894.06;2051982;69;20285;-75
2023/11/04 05:04:56;;;;;;;2.17;1.42;;;;;;;2.44;80.22;90897.72;2051422;70;20240;-76
2023/11/04 05:07:21;;;;;;;1.58;1.02;;;;;;;2.51;79.70;90899.50;2051882;69;20162;-77
2023/11/04 05:09:47;;;;;;;3.60;1.70;;;;;;;2.44;79.71;90903.25;2051755;69;20142;-79
2023/11/04 05:12:14;;;;;;;2.00;1.30;;;;;;;2.40;79.57;90896.75;2051437;70;20141;-77
2023/11/04 05:14:39;;;;;;;2.15;1.10;;;;;;;2.41;79.56;90892.63;2051965;69;20222;-80
2023/11/04 05:17:05;;;;;;;1.88;0.90;;;;;;;2.27;79.06;90898.03;2051801;69;20529;-77
2023/11/04 05:19:30;;;;;;;1.38;0.80;;;;;;;2.24;79.20;90904.78;2051822;70;20154;-76
2023/11/04 05:21:56;;;;;;;1.17;0.88;;;;;;;2.24;79.42;90904.78;2051954;70;20146;-78
2023/11/04 05:24:22;;;;;;;1.38;0.90;;;;;;;2.24;79.46;90910.34;2051905;70;20142;-79
2023/11/04 05:26:48;;;;;;;2.65;1.00;;;;;;;2.18;79.29;90907.91;2052007;70;20142;-79
2023/11/04 05:29:13;;;;;;;1.95;1.05;;;;;;;2.21;79.41;90892.84;2051827;69;20146;-77
2023/11/04 05:31:39;;;;;;;2.15;0.50;;;;;;;2.13;78.73;90895.13;2051934;69;20165;-75
2023/11/04 05:34:04;;;;;;;1.88;0.57;;;;;;;2.14;78.80;90893.78;2051974;69;20146;-76
2023/11/04 05:36:30;;;;;;;1.20;0.52;;;;;;;2.03;79.20;90886.88;2051885;69;20142;-76
2023/11/04 05:38:56;;;;;;;0.80;0.47;;;;;;;2.01;78.98;90883.25;2051765;70;20157;-75
2023/11/04 05:41:21;;;;;;;0.77;0.50;;;;;;;2.06;79.05;90884.94;2051760;69;20142;-77
2023/11/04 05:43:47;;;;;;;4.80;1.13;;;;;;;2.03;79.29;90880.63;2051901;69;20213;-80
2023/11/04 05:46:13;;;;;;;1.52;0.90;;;;;;;1.91;79.04;90877.06;2051731;70;20538;-79
2023/11/04 05:48:38;;;;;;;2.47;0.70;;;;;;;1.96;79.08;90871.19;2051289;70;20150;-78
2023/11/04 05:51:06;;;;;;;3.20;0.93;;;;;;;1.89;79.14;90868.63;2051735;69;20253;-79
2023/11/04 05:53:32;;;;;;;1.60;0.90;;;;;;;1.89;79.26;90876.97;2051731;70;20599;-77
2023/11/04 05:55:57;;;;;;;1.52;0.95;;;;;;;1.84;79.17;90878.03;2051605;70;20179;-80
2023/11/04 05:58:23;;;;;;;0.90;0.57;;;;;;;1.76;79.44;90886.56;2051884;69;20206;-80
2023/11/04 06:00:49;;;;;;;1.75;0.60;;;;;;;1.80;79.33;90875.00;2051821;69;20178;-76
2023/11/04 06:03:14;;;;;;;1.20;0.50;;;;;;;1.77;79.51;90880.41;2051889;69;20487;-75
2023/11/04 06:05:40;;;;;;;1.20;0.50;;;;;;;1.77;79.21;90877.63;2051850;69;20590;-75
2023/11/04 06:08:06;;;;;;;0.88;0.65;;;;;;;1.72;79.37;90873.16;2051827;69;20155;-77
2023/11/04 06:10:31;;;;;;;0.43;0.43;;;;;;;1.61;79.17;90864.81;2051638;69;20147;-75
2023/11/04 06:12:57;;;;;;;1.00;0.38;;;;;;;1.71;79.29;90868.22;2051728;69;20523;-77
2023/11/04 06:15:24;;;;;;;1.45;0.40;;;;;;;1.68;79.25;90861.81;2051747;70;20159;-79
2023/11/04 06:17:50;;;;;;;2.58;0.40;;;;;;;1.73;79.06;90866.28;2051752;69;20150;-80
2023/11/04 06:20:15;;;;;;;1.23;0.47;;;;;;;1.49;78.58;90851.63;2051814;69;20190;-79
2023/11/04 06:22:41;;;;;;;2.40;0.93;;;;;;;1.56;79.38;90840.91;2051624;69;20138;-79
2023/11/04 06:25:08;;;;;;;6.88;2.78;;;;;;;1.53;79.13;90851.16;2051679;70;20147;-79
2023/11/04 06:27:33;;;;;;;3.22;1.58;;;;;;;1.62;79.37;90855.88;2051806;69;20146;-79
2023/11/04 06:29:59;;;;;;;3.80;1.77;;;;;;;1.59;79.07;90854.31;2051864;69;20526;-79
2023/11/04 06:32:25;;;;;;;4.50;1.17;;;;;;;1.56;79.11;90855.50;2051834;70;20154;-79
2023/11/04 06:34:50;;;;;;;4.53;1.00;;;;;;;1.64;79.11;90858.78;2051719;70;20225;-77
2023/11/04 06:37:16;;;;;;;2.63;0.82;;;;;;;1.30;78.66;90817.78;2051803;69;20139;-79
2023/11/04 06:39:41;;;;;;;2.45;0.73;;;;;;;1.55;78.90;90867.91;2051658;70;20157;-78
2023/11/04 06:42:07;;;;;;;1.23;0.63;;;;;;;1.63;78.79;90870.47;2051732;69;20146;-79
2023/11/04 06:44:34;;;;;;;3.55;2.30;;;;;;;1.52;79.03;90878.16;2051817;69;20123;-77
2023/11/04 06:47:01;;;;;;;12.15;6.97;;;;;;;1.59;79.59;90881.31;2054389;70;20177;-77
2023/11/04 06:49:28;;;;;;;14.30;8.25;;;;;;;1.30;79.78;90879.50;2052508;70;20594;-80
2023/11/04 06:51:54;;;;;;;16.25;9.63;;;;;;;1.47;80.60;90884.06;2051880;69;20213;-80
2023/11/04 06:54:19;;;;;;;14.18;9.35;;;;;;;1.53;80.11;90881.66;2051589;69;20157;-79
2023/11/04 06:56:45;;;;;;;12.68;8.25;;;;;;;1.62;80.05;90869.75;2051622;69;20182;-79
2023/11/04 06:59:11;;;;;;;12.05;6.85;;;;;;;1.60;80.09;90863.34;2051285;70;20175;-79
2023/11/04 07:01:37;;;;;;;8.77;5.30;;;;;;;1.62;79.88;90866.97;2051077;70;20220;-79
2023/11/04 07:04:03;;;;;;;6.18;4.00;;;;;;;1.64;80.03;90867.09;2051608;69;20142;-82
2023/11/04 07:06:29;;;;;;;4.60;2.30;;;;;;;1.52;79.64;90871.91;2051738;69;20146;-75
2023/11/04 07:08:55;;;;;;;7.82;4.45;;;;;;;1.62;79.58;90872.53;2051517;69;20174;-76
2023/11/04 07:11:21;;;;;;;6.40;3.55;;;;;;;1.63;80.05;90865.66;2051869;69;20147;-76
2023/11/04 07:13:46;;;;;;;2.20;1.70;;;;;;;1.67;80.35;90865.91;2051664;70;20157;-75
2023/11/04 07:16:13;;;;;;;6.07;4.15;;;;;;;1.69;80.16;90871.56;2051031;70;20153;-77
2023/11/04 07:18:40;;;;;;;5.70;3.15;;;;;;;1.70;79.81;90864.00;2051874;69;20150;-75
2023/11/04 07:21:06;;;;;;;2.03;1.33;;;;;;;1.72;80.13;90866.91;2051743;69;20223;-79
2023/11/04 07:23:31;;;;;;;4.03;1.35;;;;;;;1.73;79.90;90857.97;2051805;69;20700;-78
2023/11/04 07:25:57;;;;;;;4.38;1.00;;;;;;;1.72;79.94;90867.63;2051537;70;20607;-79
2023/11/04 07:28:23;;;;;;;0.80;0.80;;;;;;;1.70;79.84;90861.94;2051732;69;20157;-77
2023/11/04 07:30:52;;;;;;;2.20;0.85;;;;;;;1.73;79.90;90852.41;2051832;70;20149;-78
2023/11/04 07:33:19;;;;;;;2.03;0.90;;;;;;;1.75;79.94;90849.78;2051188;70;20220;-78
2023/11/04 07:35:45;;;;;;;4.30;1.85;;;;;;;1.53;80.32;90848.38;2051785;70;20146;-79
2023/11/04 07:38:11;;;;;;;7.85;3.10;;;;;;;1.49;81.00;90859.94;2051717;70;20530;-78
2023/11/04 07:40:37;;;;;;;5.93;2.80;;;;;;;1.65;80.34;90867.81;2051555;70;20146;-77
2023/11/04 07:43:03;;;;;;;4.40;2.53;;;;;;;1.73;79.77;90860.75;2051790;70;20134;-75
2023/11/04 07:45:29;;;;;;;3.22;1.70;;;;;;;1.81;80.23;90863.31;2051671;70;20205;-75
2023/11/04 07:47:54;;;;;;;3.45;1.10;;;;;;;1.81;80.11;90854.25;2051632;70;20158;-76
2023/11/04 07:50:20;;;;;;;1.33;0.80;;;;;;;1.85;80.29;90858.00;2051517;69;20138;-77
2023/11/04 07:52:46;;;;;;;15.93;8.68;;;;;;;1.62;80.57;90853.13;2051597;69;20557;-79
2023/11/04 07:55:11;;;;;;;42.22;21.42;;;;;;;1.59;81.28;90845.97;2051478;70;20138;-77
2023/11/04 07:57:38;;;;;;;73.88;31.20;;;;;;;1.88;80.88;90850.53;2051637;70;20149;-79
2023/11/04 08:00:07;;;;;;;73.22;31.58;;;;;;;1.95;80.62;90850.31;2051489;70;20613;-78
2023/11/04 08:02:37;;;;;;;48.40;21.05;;;;;;;2.09;80.16;90836.56;2051714;70;20209;-79
2023/11/04 08:05:03;;;;;;;43.63;21.50;;;;;;;2.19;80.24;90837.19;2051134;70;20130;-79
2023/11/04 08:07:29;;;;;;;48.47;22.40;;;;;;;2.67;81.00;90824.03;2051677;70;20139;-80
2023/11/04 08:09:56;;;;;;;28.88;13.65;;;;;;;3.22;80.91;90824.44;2052133;69;20138;-77
2023/11/04 08:12:22;;;;;;;30.35;13.50;;;;;;;3.64;80.27;90826.06;2052173;70;20594;-81
2023/11/04 08:14:48;;;;;;;21.60;12.00;;;;;;;4.09;84.80;90817.38;2052137;69;20153;-77
2023/11/04 08:17:14;;;;;;;24.70;13.23;;;;;;;4.16;82.47;90808.00;2052174;69;20579;-76
2023/11/04 08:19:40;;;;;;;7.97;2.70;;;;;;;3.95;79.26;90802.69;2052389;69;20166;-76
2023/11/04 08:22:07;;;;;;;20.20;10.48;;;;;;;4.38;78.41;90802.16;2052614;69;20166;-76
2023/11/04 08:24:33;;;;;;;25.80;12.30;;;;;;;4.43;75.50;90793.41;2052117;69;20154;-78
2023/11/04 08:26:59;;;;;;;17.75;9.27;;;;;;;4.52;75.25;90784.13;2052094;69;20145;-76
2023/11/04 08:29:25;;;;;;;12.85;6.38;;;;;;;4.68;74.30;90783.53;2051997;70;20146;-78
2023/11/04 08:31:51;;;;;;;13.65;6.88;;;;;;;4.98;75.13;90776.69;2052258;69;20143;-76
2023/11/04 08:34:17;;;;;;;14.82;8.50;;;;;;;5.08;74.12;90770.88;2052113;70;20158;-77
2023/11/04 08:36:43;;;;;;;10.70;6.30;;;;;;;5.43;74.71;90776.06;2053233;69;20189;-77
2023/11/04 08:39:09;;;;;;;20.90;9.57;;;;;;;5.62;72.10;90766.50;2052589;69;20142;-82
2023/11/04 08:41:35;;;;;;;24.77;8.38;;;;;;;5.67;74.42;90779.31;2051974;69;20170;-79
2023/11/04 08:44:01;;;;;;;28.15;11.40;;;;;;;6.24;71.63;90775.66;2052029;69;20130;-79
2023/11/04 08:46:27;;;;;;;12.00;5.35;;;;;;;6.30;68.92;90764.75;2051606;70;20177;-79
2023/11/04 08:48:52;;;;;;;5.80;3.20;;;;;;;6.98;67.72;90757.94;2052098;70;20146;-74
2023/11/04 08:51:18;;;;;;;6.45;2.90;;;;;;;7.30;66.79;90729.88;2052171;69;20158;-77
2023/11/04 08:53:43;;;;;;;3.78;2.00;;;;;;;7.35;65.70;90745.47;2052309;69;20193;-77
2023/11/04 08:56:09;;;;;;;4.30;2.83;;;;;;;6.99;62.65;90745.38;2052231;70;20146;-76
2023/11/04 08:58:35;;;;;;;8.23;3.70;;;;;;;7.43;65.18;90733.91;2052027;69;20138;-75
2023/11/04 09:01:02;;;;;;;3.67;2.92;;;;;;;7.34;64.66;90727.97;2052017;69;20154;-76
2023/11/04 09:03:27;;;;;;;6.45;3.70;;;;;;;7.34;64.77;90727.25;2051901;69;20138;-78
2023/11/04 09:05:53;;;;;;;6.22;3.80;;;;;;;7.34;64.62;90727.25;2051890;69;20138;-80
2023/11/04 09:08:19;;;;;;;5.65;3.70;;;;;;;7.86;64.33;90722.28;2051468;69;20138;-79
2023/11/04 09:10:47;;;;;;;7.72;4.10;;;;;;;7.89;62.75;90712.59;2051927;69;20150;-75
2023/11/04 09:13:13;;;;;;;8.00;3.10;;;;;;;8.24;63.05;90722.31;2051995;69;20150;-78
2023/11/04 09:15:39;;;;;;;12.48;5.32;;;;;;;8.58;61.42;90726.41;2051445;70;20142;-79
2023/11/04 09:18:06;;;;;;;5.43;2.80;;;;;;;8.05;61.52;90730.03;2051973;69;20145;-78
2023/11/04 09:20:32;;;;;;;5.55;2.50;;;;;;;8.37;60.34;90721.41;2051785;69;20149;-76
2023/11/04 09:22:58;;;;;;;4.63;2.95;;;;;;;8.91;62.11;90722.66;2051948;69;20520;-76
2023/11/04 09:25:24;;;;;;;2.83;1.70;;;;;;;9.26;59.91;90712.63;2051796;69;20213;-76
2023/11/04 09:27:51;;;;;;;3.47;1.88;;;;;;;9.04;57.07;90709.06;2051793;70;20142;-78
2023/11/04 09:30:17;;;;;;;2.10;1.60;;;;;;;8.85;57.76;90691.59;2051391;70;20181;-77
2023/11/04 09:32:44;;;;;;;4.90;1.60;;;;;;;9.23;54.70;90685.84;2051393;70;20238;-78
2023/11/04 09:35:12;;;;;;;2.28;1.45;;;;;;;9.31;53.01;90685.41;2052059;69;20162;-77
2023/11/04 09:37:43;;;;;;;5.00;2.90;;;;;;;9.47;55.79;90690.84;2051880;69;20146;-80
2023/11/04 09:40:10;;;;;;;1.38;0.90;;;;;;;9.89;52.16;90691.47;2051237;70;20139;-80
2023/11/04 09:42:36;;;;;;;2.92;1.70;;;;;;;9.07;54.38;90680.44;2051314;69;20280;-81
2023/11/04 09:45:06;;;;;;;9.70;4.82;;;;;;;8.85;56.08;90683.19;2051781;69;20519;-79
2023/11/04 09:47:33;;;;;;;12.05;5.88;;;;;;;10.47;55.90;90683.38;2051735;69;20154;-76
2023/11/04 09:49:59;;;;;;;7.57;3.55;;;;;;;11.12;54.47;90676.72;2051806;69;20169;-78
2023/11/04 09:52:27;;;;;;;3.22;1.80;;;;;;;11.59;52.84;90685.63;2053861;69;20244;-79
2023/11/04 09:54:53;;;;;;;7.88;3.42;;;;;;;11.40;52.98;90684.47;2051756;69;20149;-81
2023/11/04 09:57:20;;;;;;;1.42;1.15;;;;;;;11.10;52.20;90682.31;2051313;70;20230;-77
2023/11/04 09:59:45;;;;;;;2.25;1.10;;;;;;;11.96;51.14;90678.81;2051863;69;20147;-76
2023/11/04 10:02:12;;;;;;;1.35;0.95;;;;;;;12.15;49.80;90680.66;2051802;70;20168;-76
2023/11/04 10:04:38;;;;;;;2.47;1.48;;;;;;;12.35;45.67;90680.41;2051968;69;20213;-76
2023/11/04 10:07:05;;;;;;;0.40;0.40;;;;;;;12.23;46.37;90657.56;2051777;70;20499;-77
2023/11/04 10:09:32;;;;;;;1.27;0.88;;;;;;;14.28;44.35;90648.56;2051809;69;20162;-76
2023/11/04 10:11:58;;;;;;;0.82;0.70;;;;;;;14.96;44.05;90648.09;2051874;70;20146;-74
2023/11/04 10:14:24;;;;;;;1.83;0.90;;;;;;;15.03;43.21;90631.16;2051861;70;20150;-78
2023/11/04 10:16:50;;;;;;;1.08;0.75;;;;;;;15.92;40.33;90640.56;2051833;69;20161;-76
2023/11/04 10:19:17;;;;;;;1.58;0.80;;;;;;;14.34;42.99;90631.69;2051869;69;20174;-79
2023/11/04 10:21:44;;;;;;;0.95;0.70;;;;;;;14.36;44.62;90634.56;2051867;69;20546;-78
2023/11/04 10:24:11;;;;;;;0.73;0.70;;;;;;;15.86;43.66;90617.84;2051787;69;20189;-81
2023/11/04 10:26:37;;;;;;;1.73;1.00;;;;;;;15.99;43.05;90595.94;2051939;69;20253;-79
2023/11/04 10:29:03;;;;;;;1.88;1.25;;;;;;;14.69;42.45;90603.84;2052607;69;20162;-81
2023/11/04 10:31:30;;;;;;;1.75;1.17;;;;;;;15.17;43.13;90608.66;2052702;69;20178;-79
2023/11/04 10:34:00;;;;;;;1.00;0.90;;;;;;;15.96;41.37;90600.88;2051830;70;20166;-78
2023/11/04 10:36:26;;;;;;;2.67;1.25;;;;;;;14.73;43.08;90595.41;2051821;69;20253;-77
2023/11/04 10:39:05;;;;;;;1.85;1.10;;;;;;;15.91;42.46;90610.78;2051697;69;20142;-78
2023/11/04 10:41:42;;;;;;;1.45;1.05;;;;;;;15.86;43.00;90606.50;2051774;69;20146;-77
2023/11/04 10:44:18;;;;;;;2.15;1.05;;;;;;;17.52;40.82;90608.03;2051764;69;20143;-79
2023/11/04 10:47:04;;;;;;;1.38;1.00;;;;;;;17.89;39.30;90603.13;2051786;70;20150;-77
2023/11/04 10:49:45;;;;;;;1.05;0.90;;;;;;;18.56;39.72;90608.06;2051917;69;20178;-77
2023/11/04 10:52:14;;;;;;;1.92;0.73;;;;;;;16.91;35.72;90602.88;2051808;70;20603;-77
2023/11/04 10:54:44;;;;;;;1.27;0.88;;;;;;;15.13;39.40;90609.31;2051658;69;20146;-78
2023/11/04 10:57:27;;;;;;;2.35;0.90;;;;;;;16.26;40.11;90616.69;2051786;69;20138;-77
2023/11/04 11:00:13;;;;;;;2.88;0.90;;;;;;;16.31;40.12;90598.28;2051797;69;20142;-77
2023/11/04 11:02:44;;;;;;;1.90;0.88;;;;;;;16.11;40.44;90572.59;2051781;69;20150;-77
2023/11/04 11:05:14;;;;;;;1.35;0.95;;;;;;;15.70;40.47;90580.81;2051782;69;20221;-75
2023/11/04 11:07:44;;;;;;;1.42;0.63;;;;;;;14.40;42.68;90568.78;2051703;69;20606;-76
2023/11/04 11:10:12;;;;;;;2.85;0.90;;;;;;;14.49;41.47;90556.19;2051573;70;20150;-76
2023/11/04 11:12:45;;;;;;;1.52;0.77;;;;;;;13.54;41.38;90561.22;2051710;70;20162;-76
2023/11/04 11:15:11;;;;;;;2.38;1.20;;;;;;;12.52;43.17;90545.31;2051720;69;20154;-76
2023/11/04 11:17:37;;;;;;;1.88;1.40;;;;;;;12.08;45.85;90543.72;2051710;69;20150;-77
2023/11/04 11:20:09;;;;;;;3.38;1.30;;;;;;;12.96;44.85;90539.75;2051776;69;20209;-77
2023/11/04 11:22:36;;;;;;;1.98;1.30;;;;;;;12.83;44.26;90532.44;2051620;69;20254;-77
2023/11/04 11:25:01;;;;;;;2.13;1.30;;;;;;;12.86;44.68;90531.81;2051529;69;20595;-79
2023/11/04 11:27:27;;;;;;;2.58;1.60;;;;;;;13.33;46.02;90531.91;2051741;69;20221;-78
2023/11/04 11:29:56;;;;;;;2.10;1.27;;;;;;;12.96;44.69;90523.50;2051644;70;20163;-78
2023/11/04 11:32:21;;;;;;;4.75;1.45;;;;;;;13.05;44.76;90526.47;2051660;70;20213;-78
2023/11/04 11:34:51;;;;;;;1.50;1.30;;;;;;;12.39;43.63;90521.78;2051709;70;20202;-78
2023/11/04 11:37:22;;;;;;;2.22;1.13;;;;;;;12.09;45.07;90502.13;2051653;69;20272;-78